Time;durP1;ratioP1;P1;durP2;ratioP2;P2;SDS_P1;SDS_P2;PMS_P1;PMS_P2;Temp;Humidity;BMP_temperature;BMP_pressure;BME280_temperature;BME280_humidity;BME280_pressure;Samples;Min_cycle;Max_cycle;Signal;HPM_P1;HPM_P2
2022/03/16 00:00:21;;;;;;;0.82;0.82;;;;;;;-6.85;59.79;101059.88;4972870;28;20457;-88
2022/03/16 00:02:49;;;;;;;0.90;0.90;;;;;;;-6.82;59.87;101074.63;4967213;28;20047;-87
2022/03/16 00:05:17;;;;;;;0.80;0.80;;;;;;;-6.80;59.91;101070.13;4987422;28;20058;-87
2022/03/16 00:07:44;;;;;;;0.70;0.70;;;;;;;-6.81;59.97;101068.41;4980277;28;20078;-87
2022/03/16 00:10:11;;;;;;;0.70;0.70;;;;;;;-6.90;60.32;101067.16;4972554;28;20051;-86
2022/03/16 00:12:40;;;;;;;0.70;0.70;;;;;;;-6.93;60.50;101066.47;4972685;28;20047;-86
2022/03/16 00:15:07;;;;;;;0.68;0.68;;;;;;;-6.93;60.59;101071.72;4972020;28;20533;-85
2022/03/16 00:17:35;;;;;;;0.60;0.60;;;;;;;-6.98;60.41;101071.97;4972698;28;20561;-87
2022/03/16 00:20:03;;;;;;;0.90;0.90;;;;;;;-6.93;60.52;101077.81;4972844;28;20055;-88
2022/03/16 00:22:33;;;;;;;0.70;0.70;;;;;;;-6.96;60.55;101072.75;4958241;28;20058;-87
2022/03/16 00:25:01;;;;;;;0.70;0.70;;;;;;;-6.99;60.68;101079.00;4972809;28;20143;-86
2022/03/16 00:27:29;;;;;;;0.82;0.82;;;;;;;-7.00;60.81;101085.16;4973155;28;20417;-86
2022/03/16 00:29:56;;;;;;;0.80;0.80;;;;;;;-7.02;60.82;101081.75;4959773;28;20061;-86
2022/03/16 00:32:24;;;;;;;0.70;0.70;;;;;;;-7.05;60.92;101081.94;4982217;28;20061;-86
2022/03/16 00:34:54;;;;;;;0.70;0.70;;;;;;;-7.05;60.83;101084.56;4996804;28;20050;-86
2022/03/16 00:37:22;;;;;;;0.90;0.90;;;;;;;-7.06;61.27;101080.25;4998063;28;20464;-88
2022/03/16 00:39:49;;;;;;;0.85;0.85;;;;;;;-7.17;61.13;101079.94;4997710;28;20053;-87
2022/03/16 00:42:21;;;;;;;0.77;0.77;;;;;;;-7.09;61.23;101083.03;5000181;28;20103;-87
2022/03/16 00:44:48;;;;;;;0.90;0.90;;;;;;;-7.12;61.01;101080.56;5017631;28;20389;-87
2022/03/16 00:47:16;;;;;;;0.80;0.80;;;;;;;-7.15;61.23;101080.72;5017964;28;20056;-87
2022/03/16 00:49:45;;;;;;;0.75;0.75;;;;;;;-7.16;61.35;101081.66;5018577;28;20531;-88
2022/03/16 00:52:12;;;;;;;0.90;0.90;;;;;;;-7.18;61.52;101083.50;5024345;28;20054;-88
2022/03/16 00:54:39;;;;;;;0.80;0.80;;;;;;;-7.19;61.50;101079.19;5026881;28;20096;-87
2022/03/16 00:57:06;;;;;;;0.70;0.70;;;;;;;-7.26;61.55;101083.06;5025630;28;20050;-87
2022/03/16 00:59:41;;;;;;;0.82;0.82;;;;;;;-7.36;61.72;101080.06;4983906;28;20058;-89
2022/03/16 01:02:08;;;;;;;0.60;0.60;;;;;;;-7.42;61.84;101086.50;5018397;28;20073;-88
2022/03/16 01:04:37;;;;;;;0.70;0.70;;;;;;;-7.39;62.11;101075.00;5017947;28;20057;-88
2022/03/16 01:07:05;;;;;;;0.93;0.93;;;;;;;-7.39;62.18;101090.72;5017834;28;20108;-88
2022/03/16 01:09:32;;;;;;;0.68;0.68;;;;;;;-7.44;62.10;101085.72;5017254;28;20088;-87
2022/03/16 01:11:59;;;;;;;0.68;0.68;;;;;;;-7.55;62.34;101080.16;4982896;28;20046;-85
2022/03/16 01:14:27;;;;;;;0.65;0.65;;;;;;;-7.48;62.45;101086.78;5017415;28;20049;-88
2022/03/16 01:16:54;;;;;;;0.75;0.75;;;;;;;-7.46;62.53;101094.59;5021057;28;20081;-88
2022/03/16 01:19:22;;;;;;;0.70;0.70;;;;;;;-7.49;62.54;101085.09;5023321;28;20042;-85
2022/03/16 01:21:49;;;;;;;0.80;0.80;;;;;;;-7.57;62.72;101082.03;5010950;28;20058;-86
2022/03/16 01:24:16;;;;;;;0.82;0.82;;;;;;;-7.56;62.65;101098.59;5006752;28;20046;-85
2022/03/16 01:26:43;;;;;;;0.90;0.90;;;;;;;-7.64;62.69;101081.47;5006162;28;20068;-86
2022/03/16 01:29:11;;;;;;;0.90;0.90;;;;;;;-7.61;62.87;101090.13;5028208;28;20076;-86
2022/03/16 01:31:38;;;;;;;0.90;0.90;;;;;;;-7.68;63.03;101077.28;4995718;28;20113;-86
2022/03/16 01:34:13;;;;;;;0.90;0.90;;;;;;;-7.70;63.09;101086.16;5015550;28;20038;-86
2022/03/16 01:36:40;;;;;;;0.80;0.80;;;;;;;-7.76;63.30;101082.09;5006858;28;20060;-84
2022/03/16 01:39:07;;;;;;;0.90;0.90;;;;;;;-7.79;63.27;101091.88;5037949;28;20049;-87
2022/03/16 01:41:35;;;;;;;0.90;0.90;;;;;;;-7.82;63.51;101094.63;5038260;28;20046;-88
2022/03/16 01:44:04;;;;;;;0.93;0.93;;;;;;;-7.89;63.84;101091.50;4995175;28;20053;-86
2022/03/16 01:46:36;;;;;;;0.90;0.90;;;;;;;-7.81;63.76;101089.34;5005564;28;20567;-85
2022/03/16 01:49:03;;;;;;;0.90;0.90;;;;;;;-7.86;63.91;101091.34;5024792;28;20085;-87
2022/03/16 01:51:31;;;;;;;0.90;0.90;;;;;;;-7.92;64.05;101092.50;4997055;28;20459;-88
2022/03/16 01:53:58;;;;;;;0.80;0.80;;;;;;;-7.96;64.24;101101.41;5009263;28;20058;-87
2022/03/16 01:56:25;;;;;;;0.90;0.90;;;;;;;-8.02;64.49;101095.63;5006768;28;20050;-85
2022/03/16 01:58:52;;;;;;;0.90;0.90;;;;;;;-8.04;64.83;101094.84;5031097;28;20052;-85
2022/03/16 02:01:19;;;;;;;0.90;0.90;;;;;;;-8.00;64.70;101099.88;5010489;28;20056;-85
2022/03/16 02:03:47;;;;;;;0.90;0.90;;;;;;;-8.04;64.78;101107.97;4972794;28;20053;-89
2022/03/16 02:06:14;;;;;;;0.90;0.90;;;;;;;-8.16;64.99;101102.38;5006982;28;20057;-89
2022/03/16 02:08:41;;;;;;;1.02;1.02;;;;;;;-8.14;65.32;101105.78;5032459;28;20116;-89
2022/03/16 02:11:08;;;;;;;0.73;0.73;;;;;;;-8.20;65.41;101103.47;5032867;28;20118;-87
2022/03/16 02:13:36;;;;;;;0.75;0.75;;;;;;;-8.19;65.75;101097.28;5034325;28;20052;-89
2022/03/16 02:16:05;;;;;;;0.77;0.77;;;;;;;-8.16;66.03;101093.66;5033837;28;20050;-86
2022/03/16 02:18:32;;;;;;;1.00;1.00;;;;;;;-8.17;65.43;101094.59;5011444;28;20052;-85
2022/03/16 02:21:02;;;;;;;0.88;0.88;;;;;;;-8.23;65.54;101087.88;5009224;28;20074;-88
2022/03/16 02:23:30;;;;;;;1.02;1.02;;;;;;;-8.28;65.80;101084.63;5014403;28;20054;-87
2022/03/16 02:25:57;;;;;;;0.90;0.90;;;;;;;-8.25;65.90;101096.72;5011639;28;20050;-86
2022/03/16 02:28:25;;;;;;;0.80;0.80;;;;;;;-8.27;65.88;101095.97;5016154;28;20129;-88
2022/03/16 02:30:52;;;;;;;1.10;1.10;;;;;;;-8.38;66.31;101088.59;5015162;28;20056;-89
2022/03/16 02:33:19;;;;;;;1.00;1.00;;;;;;;-8.31;66.39;101098.72;4997886;28;20153;-87
2022/03/16 02:35:47;;;;;;;1.20;1.20;;;;;;;-8.31;66.41;101098.72;5015575;28;20084;-88
2022/03/16 02:38:14;;;;;;;0.90;0.90;;;;;;;-8.34;66.35;101101.47;4997379;28;20582;-86
2022/03/16 02:40:48;;;;;;;0.90;0.90;;;;;;;-8.32;66.33;101098.78;4997392;28;20054;-89
2022/03/16 02:43:15;;;;;;;0.80;0.80;;;;;;;-8.36;66.39;101102.47;4999506;28;20073;-88
2022/03/16 02:45:43;;;;;;;0.90;0.90;;;;;;;-8.35;66.44;101105.03;5018159;28;20052;-87
2022/03/16 02:48:10;;;;;;;0.95;0.95;;;;;;;-8.36;66.58;101107.72;4986493;28;20073;-89
2022/03/16 02:50:37;;;;;;;0.60;0.60;;;;;;;-8.41;66.55;101102.72;5021472;28;20582;-89
2022/03/16 02:53:05;;;;;;;1.00;1.00;;;;;;;-8.42;66.87;101103.66;5011744;28;20030;-88
2022/03/16 02:55:51;;;;;;;1.10;1.10;;;;;;;-8.40;66.89;101106.22;5038058;28;20029;-87
2022/03/16 02:58:18;;;;;;;1.10;1.10;;;;;;;-8.36;66.95;101097.22;5038037;28;20053;-86
2022/03/16 03:00:46;;;;;;;0.70;0.70;;;;;;;-8.41;66.91;101100.09;5034279;28;20050;-87
2022/03/16 03:03:14;;;;;;;1.00;1.00;;;;;;;-8.42;67.02;101103.66;5014788;28;20046;-86
2022/03/16 03:05:41;;;;;;;1.00;1.00;;;;;;;-8.45;67.15;101103.81;4980333;28;20050;-87
2022/03/16 03:08:09;;;;;;;1.00;1.00;;;;;;;-8.46;67.32;101102.09;5014896;28;20045;-86
2022/03/16 03:10:36;;;;;;;1.10;1.10;;;;;;;-8.66;67.55;101076.81;5018051;28;20131;-86
2022/03/16 03:13:04;;;;;;;1.00;1.00;;;;;;;-8.56;67.64;101112.16;4986525;28;20428;-88
2022/03/16 03:15:31;;;;;;;0.93;0.93;;;;;;;-8.52;67.70;101108.47;5023130;28;20193;-86
2022/03/16 03:17:58;;;;;;;1.17;1.10;;;;;;;-8.56;67.89;101106.94;5017879;28;20410;-88
2022/03/16 03:20:26;;;;;;;0.90;0.90;;;;;;;-8.49;67.73;101107.47;5017361;28;20096;-87
2022/03/16 03:22:59;;;;;;;1.15;1.15;;;;;;;-8.50;68.17;101111.03;4998159;28;20081;-87
2022/03/16 03:25:27;;;;;;;1.10;1.10;;;;;;;-8.52;68.04;101113.69;5016066;28;20077;-87
2022/03/16 03:27:54;;;;;;;1.10;1.10;;;;;;;-8.51;68.03;101117.16;4996330;28;20145;-87
2022/03/16 03:30:22;;;;;;;0.80;0.80;;;;;;;-8.55;68.11;101105.16;5015416;28;20537;-90
2022/03/16 03:32:49;;;;;;;1.00;1.00;;;;;;;-8.51;68.25;101114.53;4997766;28;20126;-89
2022/03/16 03:35:16;;;;;;;0.75;0.75;;;;;;;-8.51;68.42;101119.78;5015877;28;20104;-87
2022/03/16 03:37:43;;;;;;;0.90;0.90;;;;;;;-8.51;68.43;101122.41;4980301;28;20496;-88
2022/03/16 03:40:11;;;;;;;0.80;0.80;;;;;;;-8.64;68.37;101113.41;4997429;28;20049;-88
2022/03/16 03:42:43;;;;;;;0.98;0.98;;;;;;;-8.66;68.71;101117.88;5015496;28;20053;-88
2022/03/16 03:45:10;;;;;;;0.95;0.95;;;;;;;-8.62;68.78;101128.13;4996786;28;20531;-88
2022/03/16 03:47:37;;;;;;;0.90;0.90;;;;;;;-8.62;68.87;101127.28;5014744;28;20085;-87
2022/03/16 03:50:05;;;;;;;1.00;1.00;;;;;;;-8.56;68.99;101132.22;4996379;28;20042;-90
2022/03/16 03:52:35;;;;;;;1.00;1.00;;;;;;;-8.60;68.72;101128.91;4996477;28;20042;-89
2022/03/16 03:55:02;;;;;;;1.08;1.08;;;;;;;-8.52;68.94;101139.03;5015058;28;20049;-88
2022/03/16 03:57:29;;;;;;;1.05;1.05;;;;;;;-8.49;68.92;101135.44;4981866;28;20053;-88
2022/03/16 03:59:57;;;;;;;1.05;1.05;;;;;;;-8.47;68.98;101147.53;5013395;28;20045;-87
2022/03/16 04:02:48;;;;;;;1.30;1.20;;;;;;;-8.45;69.07;101150.09;4982858;28;20053;-88
2022/03/16 04:05:17;;;;;;;0.98;0.98;;;;;;;-8.45;69.18;101150.94;4983632;28;20065;-87
2022/03/16 04:07:44;;;;;;;0.88;0.88;;;;;;;-8.42;68.92;101140.31;5003500;28;20412;-88
2022/03/16 04:10:12;;;;;;;0.95;0.95;;;;;;;-8.43;68.61;101145.63;5001588;28;20050;-88
2022/03/16 04:13:05;;;;;;;1.00;1.00;;;;;;;-8.35;68.83;101157.41;5016914;28;20140;-89
2022/03/16 04:15:33;;;;;;;1.00;1.00;;;;;;;-8.34;68.69;101153.88;4982145;28;20058;-87
2022/03/16 04:18:00;;;;;;;0.90;0.90;;;;;;;-8.31;68.59;101151.09;5002455;28;20513;-90
2022/03/16 04:20:29;;;;;;;1.30;1.20;;;;;;;-8.32;68.42;101152.03;5007004;28;20120;-88
2022/03/16 04:22:56;;;;;;;0.80;0.80;;;;;;;-8.25;68.49;101147.38;5027319;28;20061;-91
2022/03/16 04:25:24;;;;;;;1.00;1.00;;;;;;;-8.16;68.36;101160.00;5022875;28;20058;-91
2022/03/16 04:27:53;;;;;;;0.90;0.90;;;;;;;-8.15;68.53;101145.13;5012004;28;20053;-92
2022/03/16 04:30:26;;;;;;;1.05;1.05;;;;;;;-8.03;68.27;101156.81;4966422;28;20047;-89
2022/03/16 04:32:54;;;;;;;1.10;1.10;;;;;;;-7.91;67.96;101162.31;4959809;28;20254;-85
2022/03/16 04:35:21;;;;;;;1.00;1.00;;;;;;;-7.81;67.84;101167.13;4977126;28;20070;-90
2022/03/16 04:37:49;;;;;;;0.88;0.88;;;;;;;-7.72;67.63;101162.31;4984626;28;20051;-88
2022/03/16 04:40:19;;;;;;;0.90;0.90;;;;;;;-7.64;67.39;101172.41;4943435;28;20046;-88
2022/03/16 04:42:48;;;;;;;0.98;0.98;;;;;;;-7.58;67.26;101171.25;4944665;28;20051;-88
2022/03/16 04:45:15;;;;;;;0.90;0.90;;;;;;;-7.54;67.14;101167.56;4960466;28;20046;-88
2022/03/16 04:47:42;;;;;;;1.10;1.10;;;;;;;-7.45;66.76;101170.56;4981852;28;20117;-91
2022/03/16 04:50:11;;;;;;;1.10;1.10;;;;;;;-7.43;66.70;101170.50;4980951;28;20140;-91
2022/03/16 04:52:52;;;;;;;1.10;1.10;;;;;;;-7.37;66.67;101171.97;4974938;28;20047;-87
2022/03/16 04:55:20;;;;;;;0.80;0.80;;;;;;;-7.32;66.59;101169.94;4957785;28;20050;-86
2022/03/16 04:57:47;;;;;;;0.90;0.90;;;;;;;-7.24;66.35;101173.91;4955769;28;20111;-86
2022/03/16 05:00:15;;;;;;;0.90;0.90;;;;;;;-7.18;66.26;101177.16;4972374;28;20101;-87
2022/03/16 05:02:56;;;;;;;0.90;0.90;;;;;;;-7.13;66.11;101178.59;4976522;28;20065;-89
2022/03/16 05:05:23;;;;;;;0.80;0.80;;;;;;;-7.05;65.92;101183.47;4976818;28;20062;-86
2022/03/16 05:07:50;;;;;;;0.90;0.90;;;;;;;-6.98;65.78;101179.59;4965479;28;20104;-89
2022/03/16 05:10:18;;;;;;;0.85;0.85;;;;;;;-6.90;65.45;101182.66;5022388;28;20163;-88
2022/03/16 05:13:24;;;;;;;1.00;1.00;;;;;;;-6.79;65.32;101190.81;5004899;28;20053;-90
2022/03/16 05:15:51;;;;;;;1.00;1.00;;;;;;;-6.73;65.14;101191.44;5002267;28;20046;-86
2022/03/16 05:18:23;;;;;;;1.05;1.05;;;;;;;-6.67;65.02;101183.25;4991372;28;20073;-89
2022/03/16 05:20:50;;;;;;;0.90;0.90;;;;;;;-6.59;64.57;101178.44;4988852;28;20054;-91
2022/03/16 05:23:17;;;;;;;0.88;0.88;;;;;;;-6.48;64.41;101191.88;5021369;28;20158;-90
2022/03/16 05:25:44;;;;;;;1.10;1.10;;;;;;;-6.35;64.01;101186.81;5018066;28;20058;-87
2022/03/16 05:28:13;;;;;;;0.80;0.80;;;;;;;-6.24;63.78;101189.69;5019052;28;20533;-91
2022/03/16 05:30:40;;;;;;;0.95;0.95;;;;;;;-6.07;63.68;101198.44;5001952;28;20558;-89
2022/03/16 05:33:08;;;;;;;1.00;1.00;;;;;;;-6.03;63.26;101184.19;4985384;28;20162;-86
2022/03/16 05:35:35;;;;;;;0.93;0.93;;;;;;;-5.86;63.04;101188.47;5018094;28;20060;-88
2022/03/16 05:38:05;;;;;;;0.80;0.80;;;;;;;-5.76;62.85;101190.50;4999742;28;20064;-88
2022/03/16 05:40:32;;;;;;;0.80;0.80;;;;;;;-5.60;62.47;101184.38;5005575;28;20052;-88
2022/03/16 05:42:59;;;;;;;0.90;0.90;;;;;;;-5.50;62.09;101186.38;5008497;28;20496;-89
2022/03/16 05:45:27;;;;;;;0.80;0.80;;;;;;;-5.40;61.92;101197.22;4994169;28;22046;-88
2022/03/16 05:47:55;;;;;;;0.82;0.82;;;;;;;-5.29;61.39;101191.34;4919770;29;20079;-88
2022/03/16 05:50:24;;;;;;;0.82;0.82;;;;;;;-5.17;61.21;101198.53;4933767;29;20569;-88
2022/03/16 05:52:59;;;;;;;0.90;0.90;;;;;;;-5.19;61.00;101182.00;4934676;29;20086;-86
2022/03/16 05:55:29;;;;;;;0.80;0.80;;;;;;;-5.03;60.81;101203.00;4942889;29;20082;-88
2022/03/16 05:57:59;;;;;;;0.98;0.98;;;;;;;-4.92;60.76;101200.56;4920217;29;20052;-88
2022/03/16 06:00:26;;;;;;;0.70;0.70;;;;;;;-4.76;60.07;101197.00;4919312;29;20108;-86
2022/03/16 06:02:53;;;;;;;0.77;0.77;;;;;;;-4.71;59.79;101194.94;4935571;29;20055;-85
2022/03/16 06:05:24;;;;;;;0.90;0.90;;;;;;;-4.62;59.59;101194.41;4912256;29;20115;-84
2022/03/16 06:07:52;;;;;;;0.85;0.85;;;;;;;-4.48;59.24;101199.69;4946402;29;20055;-86
2022/03/16 06:10:19;;;;;;;0.73;0.73;;;;;;;-4.38;58.80;101192.91;4942184;29;20602;-86
2022/03/16 06:13:14;;;;;;;0.90;0.90;;;;;;;-4.19;58.51;101197.84;4941473;29;20060;-92
2022/03/16 06:15:43;;;;;;;0.80;0.80;;;;;;;-4.11;58.05;101197.38;4945613;29;20051;-91
2022/03/16 06:18:25;;;;;;;1.02;1.02;;;;;;;-4.04;57.64;101198.69;4929687;28;20058;-88
2022/03/16 06:20:58;;;;;;;0.70;0.70;;;;;;;-3.96;57.02;101201.69;4947522;28;20078;-91
2022/03/16 06:23:28;;;;;;;0.65;0.65;;;;;;;-3.98;57.03;101208.84;5003049;28;20188;-90
2022/03/16 06:25:55;;;;;;;0.70;0.70;;;;;;;-3.84;56.85;101209.78;4981492;28;20058;-90
2022/03/16 06:28:23;;;;;;;0.70;0.70;;;;;;;-3.79;56.47;101205.06;5002915;28;20513;-91
2022/03/16 06:30:53;;;;;;;0.80;0.80;;;;;;;-3.67;56.16;101213.94;4982406;28;20050;-90
2022/03/16 06:33:20;;;;;;;0.70;0.70;;;;;;;-3.53;55.85;101219.19;4982174;28;20074;-88
2022/03/16 06:35:47;;;;;;;0.57;0.57;;;;;;;-3.46;55.44;101219.66;4966432;28;20109;-90
2022/03/16 06:38:20;;;;;;;0.60;0.60;;;;;;;-3.43;54.69;101214.16;4972932;28;20046;-89
2022/03/16 06:40:47;;;;;;;0.80;0.80;;;;;;;-3.36;54.93;101210.19;4964159;28;21203;-92
2022/03/16 06:43:40;;;;;;;0.65;0.65;;;;;;;-3.21;54.07;101210.97;4888636;28;20110;-91
2022/03/16 06:46:08;;;;;;;0.80;0.80;;;;;;;-3.11;53.77;101219.97;4994190;28;20047;-93
2022/03/16 06:48:45;;;;;;;0.60;0.60;;;;;;;-3.03;53.36;101222.09;5000281;28;20050;-89
2022/03/16 06:51:14;;;;;;;0.57;0.57;;;;;;;-2.99;53.05;101207.72;5010038;28;20074;-90
2022/03/16 06:53:41;;;;;;;0.65;0.65;;;;;;;-2.89;52.79;101216.72;4999205;28;20193;-87
2022/03/16 06:56:22;;;;;;;0.60;0.60;;;;;;;-2.80;52.58;101226.69;4974368;28;20042;-87
2022/03/16 06:58:51;;;;;;;0.70;0.70;;;;;;;-2.79;51.99;101217.78;5017972;28;20089;-91
2022/03/16 07:01:35;;;;;;;0.77;0.77;;;;;;;-2.80;51.94;101226.69;4979737;28;20049;-93
2022/03/16 07:04:05;;;;;;;0.65;0.65;;;;;;;-2.75;51.89;101229.00;4996775;28;20066;-87
2022/03/16 07:06:32;;;;;;;0.77;0.77;;;;;;;-2.73;51.55;101225.31;5000150;28;20467;-89
2022/03/16 07:09:00;;;;;;;0.70;0.70;;;;;;;-2.62;51.56;101225.41;4991804;28;20671;-86
2022/03/16 07:11:27;;;;;;;0.80;0.80;;;;;;;-2.60;51.43;101238.53;5001345;28;20046;-91
2022/03/16 07:14:32;;;;;;;0.63;0.63;;;;;;;-2.57;51.23;101240.97;4988156;28;20054;-92
2022/03/16 07:17:04;;;;;;;0.63;0.63;;;;;;;-2.63;50.29;101231.66;4965686;28;20056;-92
2022/03/16 07:19:35;;;;;;;0.50;0.50;;;;;;;-2.56;50.03;101244.44;4973808;28;20142;-92
2022/03/16 07:22:04;;;;;;;0.50;0.50;;;;;;;-2.54;49.50;101231.97;4955660;28;20066;-93
2022/03/16 07:24:57;;;;;;;0.70;0.70;;;;;;;-2.64;49.64;101227.31;4923723;29;20405;-93
2022/03/16 07:27:42;;;;;;;0.73;0.73;;;;;;;-2.83;48.93;101216.31;4902871;29;20070;-90
2022/03/16 07:30:16;;;;;;;0.60;0.60;;;;;;;-2.65;48.98;101214.22;4909488;29;20503;-86
2022/03/16 07:32:44;;;;;;;0.70;0.70;;;;;;;-2.33;49.21;101249.03;4931731;29;20099;-89
2022/03/16 07:35:12;;;;;;;0.60;0.60;;;;;;;-2.60;49.26;101208.63;4924486;29;20139;-89
2022/03/16 07:37:46;;;;;;;0.68;0.68;;;;;;;-2.19;48.81;101243.59;4922512;29;20056;-89
2022/03/16 07:40:27;;;;;;;0.70;0.70;;;;;;;-2.36;48.81;101217.47;4900527;29;20091;-91
2022/03/16 07:42:55;;;;;;;0.60;0.60;;;;;;;-2.25;48.33;101222.03;4936028;29;20526;-87
2022/03/16 07:45:25;;;;;;;0.80;0.80;;;;;;;-1.90;48.21;101235.41;4935569;29;20538;-85
2022/03/16 07:47:56;;;;;;;0.70;0.70;;;;;;;-1.97;48.00;101227.06;4941000;29;20179;-90
2022/03/16 07:50:26;;;;;;;0.70;0.70;;;;;;;-1.89;47.46;101221.22;4938158;23;20059;-91
2022/03/16 07:52:55;;;;;;;0.80;0.80;;;;;;;-1.81;47.76;101213.56;4941632;29;21028;-88
2022/03/16 07:55:23;;;;;;;0.70;0.70;;;;;;;-1.55;47.05;101224.06;4908499;29;20455;-91
2022/03/16 07:57:55;;;;;;;0.98;0.90;;;;;;;-1.65;47.40;101220.41;4913352;29;20057;-89
2022/03/16 08:00:24;;;;;;;0.70;0.70;;;;;;;-1.67;47.10;101231.13;4938031;29;20533;-90
2022/03/16 08:02:56;;;;;;;0.80;0.80;;;;;;;-1.47;46.69;101226.16;4940204;29;20115;-91
2022/03/16 08:05:28;;;;;;;0.77;0.77;;;;;;;-1.68;46.82;101221.47;4919207;29;20070;-91
2022/03/16 08:08:24;;;;;;;0.90;0.90;;;;;;;-1.65;47.35;101223.88;4909172;28;20123;-92
2022/03/16 08:11:08;;;;;;;0.80;0.80;;;;;;;-1.76;47.22;101223.81;4920885;29;20055;-92
2022/03/16 08:13:44;;;;;;;0.77;0.77;;;;;;;-1.15;46.53;101227.25;4945541;29;20665;-92
2022/03/16 08:16:16;;;;;;;0.82;0.82;;;;;;;-0.57;45.27;101222.00;4944466;29;20043;-86
2022/03/16 08:18:46;;;;;;;0.90;0.90;;;;;;;0.21;43.95;101220.31;4895205;29;20080;-87
2022/03/16 08:21:13;;;;;;;0.90;0.90;;;;;;;0.57;43.00;101219.13;4912430;29;20049;-92
2022/03/16 08:23:41;;;;;;;0.90;0.90;;;;;;;0.72;42.12;101211.72;4912234;29;20064;-88
2022/03/16 08:26:16;;;;;;;0.98;0.98;;;;;;;1.03;41.44;101214.47;4927250;29;20059;-89
2022/03/16 08:28:46;;;;;;;1.00;1.00;;;;;;;1.23;40.93;101218.97;4917992;29;20430;-91
2022/03/16 08:31:14;;;;;;;1.08;1.08;;;;;;;1.35;40.78;101221.56;4921750;29;20075;-90
2022/03/16 08:33:48;;;;;;;1.00;1.00;;;;;;;1.32;40.39;101214.69;4922680;29;20185;-89
2022/03/16 08:36:15;;;;;;;1.02;1.02;;;;;;;1.50;40.28;101212.28;4919509;29;20112;-89
2022/03/16 08:38:42;;;;;;;0.77;0.77;;;;;;;1.98;39.20;101219.66;4931616;29;20059;-88
2022/03/16 08:41:32;;;;;;;0.80;0.80;;;;;;;2.09;38.81;101219.53;4923014;29;20060;-89
2022/03/16 08:44:20;;;;;;;1.10;1.10;;;;;;;2.20;38.56;101204.41;4912031;29;20104;-90
2022/03/16 08:46:50;;;;;;;1.08;1.08;;;;;;;2.51;38.00;101211.38;4897077;29;20174;-90
2022/03/16 08:49:32;;;;;;;1.00;1.00;;;;;;;2.70;37.74;101217.69;4915880;28;20079;-87
2022/03/16 08:52:06;;;;;;;1.10;1.10;;;;;;;2.52;37.64;101189.03;4955419;29;20086;-88
2022/03/16 08:54:40;;;;;;;0.90;0.90;;;;;;;2.66;37.82;101214.47;4971531;28;20050;-86
2022/03/16 09:00:14;;;;;;;0.90;0.90;;;;;;;2.91;36.90;101202.41;4993385;28;20098;-90
2022/03/16 09:05:46;;;;;;;1.15;1.15;;;;;;;3.34;35.73;101184.22;5135957;23;20051;-88
2022/03/16 09:08:18;;;;;;;1.10;1.10;;;;;;;3.41;35.77;101201.34;4973704;28;20078;-87
2022/03/16 09:10:53;;;;;;;1.20;1.10;;;;;;;3.69;35.39;101211.09;5012562;28;20032;-89
2022/03/16 09:13:21;;;;;;;1.30;1.20;;;;;;;4.50;34.46;101220.25;5018896;28;20030;-87
2022/03/16 09:15:51;;;;;;;1.10;1.10;;;;;;;4.45;34.47;101214.53;5002409;28;20057;-91
2022/03/16 09:18:49;;;;;;;1.00;1.00;;;;;;;4.64;34.20;101217.06;4964014;28;20038;-88
2022/03/16 09:21:40;;;;;;;1.00;1.00;;;;;;;3.72;34.51;101193.94;5163683;23;21391;-90
2022/03/16 09:24:13;;;;;;;0.90;0.90;;;;;;;3.75;34.43;101184.78;5007832;28;20054;-92
2022/03/16 09:26:45;;;;;;;1.10;1.10;;;;;;;3.93;34.29;101217.75;4997994;28;20042;-93
2022/03/16 09:29:40;;;;;;;0.90;0.90;;;;;;;3.56;35.04;101217.75;4934085;29;20080;-92
2022/03/16 09:32:26;;;;;;;1.13;1.10;;;;;;;3.56;35.25;101207.91;4916155;29;20132;-91
2022/03/16 09:34:54;;;;;;;1.15;1.10;;;;;;;4.64;33.81;101217.06;4932102;29;20079;-91
2022/03/16 09:37:40;;;;;;;1.10;1.10;;;;;;;5.22;32.29;101179.09;4940704;29;20063;-92
2022/03/16 09:40:08;;;;;;;1.05;1.05;;;;;;;5.78;31.25;101197.53;4923602;29;20076;-89
2022/03/16 09:42:37;;;;;;;1.10;1.10;;;;;;;6.01;31.22;101206.69;4915714;29;20072;-90
2022/03/16 09:45:07;;;;;;;1.30;1.20;;;;;;;6.14;30.08;101206.25;4944073;29;20579;-89
2022/03/16 09:47:35;;;;;;;1.27;1.17;;;;;;;6.44;30.46;101201.31;4930468;29;20487;-89
2022/03/16 09:50:02;;;;;;;1.00;1.00;;;;;;;6.69;29.98;101202.22;4921924;29;20127;-92
2022/03/16 09:52:35;;;;;;;0.90;0.90;;;;;;;6.88;29.23;101199.19;4934247;29;20086;-90
2022/03/16 09:55:05;;;;;;;1.20;1.20;;;;;;;6.84;29.17;101200.56;4935206;29;20156;-89
2022/03/16 09:57:33;;;;;;;1.00;1.00;;;;;;;6.77;29.43;101199.53;4912658;29;20559;-88
2022/03/16 10:00:01;;;;;;;1.10;1.10;;;;;;;6.35;29.55;101181.66;4940096;29;20525;-91
2022/03/16 10:02:31;;;;;;;1.10;1.10;;;;;;;6.76;29.33;101203.25;4955214;28;20067;-89
2022/03/16 10:04:59;;;;;;;1.10;1.10;;;;;;;6.68;29.44;101198.69;4937722;29;20067;-89
2022/03/16 10:07:29;;;;;;;1.10;1.10;;;;;;;6.73;29.29;101196.34;4984018;28;20034;-92
2022/03/16 10:13:16;;;;;;;1.00;1.00;;;;;;;7.16;28.95;101191.69;4991690;28;20075;-92
2022/03/16 10:15:43;;;;;;;1.10;1.10;;;;;;;7.44;28.16;101187.75;4976706;28;20055;-93
2022/03/16 10:18:15;;;;;;;1.10;1.10;;;;;;;7.26;28.05;101196.84;4976671;28;20051;-92
2022/03/16 10:21:09;;;;;;;1.20;1.10;;;;;;;7.29;28.70;101195.66;4985523;28;20065;-89
2022/03/16 10:25:02;;;;;;;1.17;1.15;;;;;;;7.64;28.32;101193.59;4960256;29;20096;-89
2022/03/16 10:27:32;;;;;;;1.10;1.10;;;;;;;8.38;26.88;101199.50;4929341;29;20040;-88
2022/03/16 10:30:00;;;;;;;1.15;1.15;;;;;;;8.56;26.69;101200.13;4919818;29;20152;-89
2022/03/16 10:32:36;;;;;;;1.10;1.10;;;;;;;8.58;26.94;101186.47;4915204;29;20039;-88
2022/03/16 10:35:05;;;;;;;1.10;1.10;;;;;;;8.55;26.88;101193.06;4896958;29;20040;-89
2022/03/16 10:37:47;;;;;;;1.10;1.10;;;;;;;8.79;26.27;101196.63;4921181;28;20138;-89
2022/03/16 10:40:26;;;;;;;1.10;1.10;;;;;;;8.88;26.34;101187.44;4907604;29;20068;-89
2022/03/16 10:48:29;;;;;;;1.00;1.00;;;;;;;9.93;24.60;101181.22;4911338;29;20056;-83
2022/03/16 10:51:02;;;;;;;1.10;1.10;;;;;;;9.80;24.88;101181.88;4908196;29;20052;-84
2022/03/16 10:53:30;;;;;;;1.10;1.10;;;;;;;9.77;24.58;101187.59;4913354;29;20060;-84
2022/03/16 10:56:01;;;;;;;1.10;1.10;;;;;;;10.15;24.42;101190.19;4914947;29;20086;-84
2022/03/16 10:58:29;;;;;;;1.10;1.10;;;;;;;10.35;23.92;101180.50;4916066;29;20060;-83
2022/03/16 11:00:57;;;;;;;1.10;1.10;;;;;;;10.37;24.10;101173.06;4915792;29;20083;-84
2022/03/16 11:03:26;;;;;;;1.10;1.10;;;;;;;10.63;24.31;101186.03;4916925;29;20076;-85
2022/03/16 11:05:54;;;;;;;1.00;1.00;;;;;;;10.77;24.08;101176.19;4919376;29;20083;-85
2022/03/16 11:08:21;;;;;;;1.00;1.00;;;;;;;10.80;23.93;101172.25;4919433;29;20078;-84
2022/03/16 11:10:48;;;;;;;1.10;1.10;;;;;;;10.31;24.15;101178.38;4918362;29;20170;-82
2022/03/16 11:13:32;;;;;;;1.00;1.00;;;;;;;10.78;23.96;101169.72;4932628;29;20143;-84
2022/03/16 11:16:00;;;;;;;1.00;1.00;;;;;;;10.85;23.86;101173.34;4954954;28;20062;-82
2022/03/16 11:18:28;;;;;;;1.00;1.00;;;;;;;10.94;23.71;101167.78;4963361;28;20047;-86
2022/03/16 11:21:07;;;;;;;1.00;1.00;;;;;;;11.09;23.24;101170.41;4979968;28;20053;-85
2022/03/16 11:26:57;;;;;;;1.00;1.00;;;;;;;11.09;22.99;101171.28;4954986;29;20581;-86
2022/03/16 11:29:46;;;;;;;1.00;1.00;;;;;;;10.37;23.22;101183.84;4937833;29;20153;-87
2022/03/16 11:32:18;;;;;;;0.73;0.73;;;;;;;9.55;24.26;101174.03;4954933;29;20087;-86
2022/03/16 11:34:48;;;;;;;1.00;1.00;;;;;;;9.29;24.85;101163.69;4953320;29;20043;-87
2022/03/16 11:37:19;;;;;;;1.00;1.00;;;;;;;10.74;23.48;101162.22;4937195;29;20051;-85
2022/03/16 11:39:47;;;;;;;1.00;1.00;;;;;;;10.56;23.40;101171.63;4937351;29;20055;-85
2022/03/16 11:42:19;;;;;;;1.00;1.00;;;;;;;10.77;23.33;101168.06;4952679;29;20051;-87
2022/03/16 11:44:46;;;;;;;1.00;1.00;;;;;;;11.15;23.01;101158.84;4952987;29;20047;-86
2022/03/16 11:47:22;;;;;;;0.40;0.40;;;;;;;9.22;24.08;101170.84;4953266;29;20048;-86
2022/03/16 11:50:11;;;;;;;0.98;0.98;;;;;;;8.57;25.12;101164.13;4955311;29;20417;-84
2022/03/16 11:53:01;;;;;;;1.00;1.00;;;;;;;9.01;24.86;101176.91;4984772;28;20081;-86
2022/03/16 11:55:43;;;;;;;1.00;1.00;;;;;;;9.91;23.97;101178.69;4956152;29;20111;-86
2022/03/16 11:58:25;;;;;;;1.00;1.00;;;;;;;10.74;23.48;101163.06;4955733;28;20180;-86
2022/03/16 12:01:31;;;;;;;1.00;1.00;;;;;;;11.16;22.94;101161.34;4958013;28;20058;-83
2022/03/16 12:04:16;;;;;;;1.00;1.00;;;;;;;10.83;22.79;101161.88;4966465;28;20082;-85